createdAt,value
2022-07-29T00:02:36.849Z,11.67
2022-07-29T00:07:39.691Z,10.73
2022-07-29T00:12:43.870Z,11.18
2022-07-29T00:17:47.049Z,11.45
2022-07-29T00:22:49.828Z,9.93
2022-07-29T00:27:53.986Z,11.55
2022-07-29T00:32:56.864Z,11.32
2022-07-29T00:37:59.909Z,10.20
2022-07-29T00:43:06.385Z,11.75
2022-07-29T00:48:09.879Z,12.32
2022-07-29T00:53:14.650Z,13.53
2022-07-29T00:58:18.882Z,11.63
2022-07-29T01:03:21.675Z,13.70
2022-07-29T01:08:25.798Z,12.63
2022-07-29T01:13:31.824Z,9.17
2022-07-29T01:18:38.056Z,9.95
2022-07-29T01:23:56.538Z,9.27
2022-07-29T01:29:13.333Z,12.07
2022-07-29T01:34:23.016Z,13.05
2022-07-29T01:39:33.568Z,11.43
2022-07-29T01:44:41.688Z,10.83
2022-07-29T01:49:50.975Z,9.90
2022-07-29T01:54:59.708Z,13.55
2022-07-29T02:00:04.891Z,10.45
2022-07-29T02:05:11.445Z,12.60
2022-07-29T02:10:16.138Z,10.88
2022-07-29T02:15:23.801Z,10.75
2022-07-29T02:20:28.320Z,13.33
2022-07-29T02:25:37.474Z,12.70
2022-07-29T02:30:45.273Z,10.25
2022-07-29T02:35:50.640Z,13.27
2022-07-29T02:40:55.297Z,10.37
2022-07-29T02:46:03.068Z,11.77
2022-07-29T02:51:10.284Z,12.25
2022-07-29T02:56:22.344Z,13.40
2022-07-29T03:01:35.134Z,13.13
2022-07-29T03:06:40.709Z,10.75
2022-07-29T03:11:50.393Z,10.10
2022-07-29T03:16:55.469Z,15.65
2022-07-29T03:21:59.173Z,13.90
2022-07-29T03:27:02.474Z,13.37
2022-07-29T03:32:08.949Z,13.47
2022-07-29T03:37:11.945Z,10.27
2022-07-29T03:42:17.681Z,11.82
2022-07-29T03:47:39.324Z,14.90
2022-07-29T03:52:51.245Z,10.80
2022-07-29T03:57:54.343Z,12.13
2022-07-29T04:02:59.027Z,12.70
2022-07-29T04:08:01.913Z,12.60
2022-07-29T04:13:04.763Z,8.88
2022-07-29T04:18:08.931Z,12.53
2022-07-29T04:23:11.932Z,13.17
2022-07-29T04:28:14.730Z,13.68
2022-07-29T04:33:21.249Z,9.98
2022-07-29T04:38:27.653Z,11.30
2022-07-29T04:43:30.430Z,12.95
2022-07-29T04:48:41.064Z,13.88
2022-07-29T04:53:43.933Z,12.67
2022-07-29T04:58:46.728Z,11.20
2022-07-29T05:03:50.961Z,9.63
2022-07-29T05:08:53.753Z,10.20
2022-07-29T05:13:56.498Z,10.97
2022-07-29T05:19:00.647Z,10.23
2022-07-29T05:24:03.459Z,10.48
2022-07-29T05:29:06.349Z,7.80
2022-07-29T05:34:10.522Z,8.85
2022-07-29T05:39:14.606Z,7.45
2022-07-29T05:44:17.718Z,8.83
2022-07-29T05:49:27.015Z,13.48
2022-07-29T05:54:30.306Z,10.43
2022-07-29T05:59:33.432Z,7.43
2022-07-29T06:04:37.658Z,10.33
2022-07-29T06:09:40.488Z,7.45
2022-07-29T06:14:43.370Z,9.57
2022-07-29T06:19:47.519Z,9.03
2022-07-29T06:24:50.340Z,7.53
2022-07-29T06:29:53.120Z,8.38
2022-07-29T06:35:24.410Z,8.37
2022-07-29T06:40:37.481Z,6.72
2022-07-29T06:45:42.351Z,8.30
2022-07-29T06:50:46.801Z,7.33
2022-07-29T06:55:49.640Z,6.57
2022-07-29T07:00:52.494Z,8.43
2022-07-29T07:05:57.363Z,7.85
2022-07-29T07:11:00.439Z,7.53
2022-07-29T07:16:03.523Z,7.05
2022-07-29T07:21:07.850Z,8.90
2022-07-29T07:26:11.809Z,6.10
2022-07-29T07:31:15.228Z,6.95
2022-07-29T07:36:19.419Z,6.55
2022-07-29T07:41:22.359Z,7.53
2022-07-29T07:46:25.220Z,6.17
2022-07-29T07:51:29.443Z,8.77
2022-07-29T07:56:35.281Z,7.93
2022-07-29T08:01:48.051Z,7.50
2022-07-29T08:07:00.896Z,6.68
2022-07-29T08:12:06.634Z,8.18
2022-07-29T08:17:09.447Z,7.70
2022-07-29T08:22:13.578Z,9.32
2022-07-29T08:27:41.809Z,7.35
2022-07-29T08:32:55.632Z,7.20
2022-07-29T08:38:00.307Z,6.43
2022-07-29T08:43:08.871Z,7.75
2022-07-29T08:48:11.688Z,8.27
2022-07-29T08:53:17.307Z,5.63
2022-07-29T08:58:23.239Z,12.38
2022-07-29T09:03:32.452Z,7.85
2022-07-29T09:08:37.329Z,8.10
2022-07-29T09:13:40.162Z,6.47
2022-07-29T09:18:44.222Z,9.27
2022-07-29T09:29:20.815Z,6.07
2022-07-29T09:34:27.266Z,7.00
2022-07-29T09:39:32.280Z,5.82
2022-07-29T09:44:49.023Z,10.23
2022-07-29T09:49:58.887Z,8.20
2022-07-29T09:55:09.028Z,8.35
2022-07-29T10:00:15.924Z,7.60
2022-07-29T10:05:22.717Z,9.20
2022-07-29T10:10:27.307Z,6.22
2022-07-29T10:15:33.672Z,8.02
2022-07-29T10:20:37.490Z,5.60
2022-07-29T10:25:45.671Z,6.80
2022-07-29T10:30:53.793Z,7.70
2022-07-29T10:36:27.017Z,7.90
2022-07-29T10:41:47.583Z,6.90
2022-07-29T10:46:52.620Z,6.22
2022-07-29T10:52:05.767Z,8.07
2022-07-29T10:57:21.610Z,8.07
2022-07-29T11:02:52.971Z,8.73
2022-07-29T11:08:26.455Z,5.85
2022-07-29T11:13:53.273Z,6.73
2022-07-29T11:19:29.770Z,6.80
2022-07-29T11:24:34.995Z,6.97
2022-07-29T11:29:41.539Z,6.25
2022-07-29T11:34:48.790Z,7.37
2022-07-29T11:40:13.111Z,7.85
2022-07-29T11:45:43.113Z,6.38
2022-07-29T11:50:44.494Z,6.40
2022-07-29T11:55:50.772Z,5.05
2022-07-29T12:00:56.311Z,8.05
2022-07-29T12:06:00.661Z,5.60
2022-07-29T12:11:03.566Z,5.47
2022-07-29T12:16:07.145Z,6.68
2022-07-29T12:21:12.454Z,6.78
2022-07-29T12:26:25.473Z,7.20
2022-07-29T12:31:41.985Z,6.43
2022-07-29T12:36:48.737Z,6.30
2022-07-29T12:41:51.534Z,7.67
2022-07-29T12:47:04.241Z,8.90
2022-07-29T12:52:30.762Z,8.23
2022-07-29T12:57:33.904Z,5.77
2022-07-29T13:02:37.536Z,6.13
2022-07-29T13:07:54.964Z,6.13
2022-07-29T13:13:08.896Z,5.32
2022-07-29T13:18:29.731Z,6.63
2022-07-29T13:23:38.405Z,7.63
2022-07-29T13:28:44.103Z,6.43
2022-07-29T13:33:47.220Z,6.10
2022-07-29T13:38:51.402Z,5.68
2022-07-29T13:43:54.257Z,6.78
2022-07-29T13:48:57.109Z,6.00
2022-07-29T13:54:01.590Z,7.10
2022-07-29T13:59:05.472Z,5.43
2022-07-29T14:04:08.390Z,5.65
2022-07-29T14:09:12.637Z,9.30
2022-07-29T14:14:15.467Z,6.95
2022-07-29T14:19:18.346Z,10.05
2022-07-29T14:24:23.785Z,6.40
2022-07-29T14:29:38.273Z,6.53
2022-07-29T14:34:41.422Z,5.55
2022-07-29T14:39:45.598Z,6.47
2022-07-29T14:44:50.321Z,6.17
2022-07-29T14:55:19.572Z,5.93
2022-07-29T15:00:23.391Z,6.43
2022-07-29T15:05:26.314Z,7.00
2022-07-29T15:10:31.203Z,7.20
2022-07-29T15:15:34.359Z,7.43
2022-07-29T15:20:37.537Z,8.73
2022-07-29T15:25:44.599Z,5.85
2022-07-29T15:30:48.273Z,13.97
2022-07-29T15:35:51.316Z,7.03
2022-07-29T15:40:57.274Z,5.20
2022-07-29T15:46:17.932Z,7.15
2022-07-29T15:51:20.871Z,6.27
2022-07-29T15:56:25.248Z,7.88
2022-07-29T16:01:28.555Z,7.72
2022-07-29T16:06:32.132Z,9.60
2022-07-29T16:11:36.766Z,6.47
2022-07-29T16:16:41.842Z,6.93
2022-07-29T16:21:45.356Z,9.73
2022-07-29T16:26:52.075Z,5.50
2022-07-29T16:31:59.468Z,7.03
2022-07-29T16:37:05.947Z,7.90
2022-07-29T16:42:36.913Z,7.10
2022-07-29T16:47:41.181Z,7.80
2022-07-29T16:52:52.605Z,7.47
2022-07-29T16:57:57.416Z,8.73
2022-07-29T17:03:14.873Z,5.53
2022-07-29T17:08:27.258Z,10.65
2022-07-29T17:13:32.291Z,9.10
2022-07-29T17:18:45.249Z,9.53
2022-07-29T17:23:52.027Z,8.18
2022-07-29T17:28:57.109Z,10.93
2022-07-29T17:34:03.387Z,8.10
2022-07-29T17:39:08.567Z,8.82
2022-07-29T17:44:13.652Z,10.48
2022-07-29T17:49:16.870Z,7.50
2022-07-29T17:54:20.422Z,9.98
2022-07-29T17:59:25.174Z,7.45
2022-07-29T18:04:29.298Z,8.27
2022-07-29T18:09:35.489Z,7.30
2022-07-29T18:14:58.473Z,7.18
2022-07-29T18:20:02.260Z,6.47
2022-07-29T18:25:05.899Z,10.40
2022-07-29T18:30:20.381Z,8.27
2022-07-29T18:35:23.653Z,7.53
2022-07-29T18:40:26.775Z,8.37
2022-07-29T18:45:36.668Z,7.15
2022-07-29T18:50:45.688Z,7.88
2022-07-29T18:56:02.405Z,9.10
2022-07-29T19:01:07.172Z,7.63
2022-07-29T19:06:21.613Z,6.03
2022-07-29T19:11:26.996Z,7.65
2022-07-29T19:16:31.260Z,6.57
2022-07-29T19:21:34.315Z,7.68
2022-07-29T19:26:39.343Z,6.35
2022-07-29T19:31:44.387Z,7.47
2022-07-29T19:36:50.256Z,6.95
2022-07-29T19:42:03.379Z,8.40
2022-07-29T19:47:12.158Z,8.80
2022-07-29T19:52:26.837Z,8.33
2022-07-29T19:57:35.937Z,8.55
2022-07-29T20:02:45.851Z,9.60
2022-07-29T20:08:09.991Z,8.70
2022-07-29T20:13:13.136Z,8.82
2022-07-29T20:23:50.627Z,9.10
2022-07-29T20:28:53.988Z,8.00
2022-07-29T20:33:59.064Z,7.82
2022-07-29T20:39:02.316Z,7.53
2022-07-29T20:44:06.327Z,7.53
2022-07-29T20:49:14.359Z,6.90
2022-07-29T20:54:19.970Z,6.93
2022-07-29T20:59:23.149Z,7.93
2022-07-29T21:04:30.924Z,9.73
2022-07-29T21:09:35.596Z,8.45
2022-07-29T21:14:57.920Z,6.93
2022-07-29T21:20:03.192Z,8.30
2022-07-29T21:25:07.022Z,9.38
2022-07-29T21:30:10.898Z,7.33
2022-07-29T21:35:30.326Z,7.10
2022-07-29T21:40:37.977Z,8.88
2022-07-29T21:45:40.832Z,7.22
2022-07-29T21:50:45.174Z,8.47
2022-07-29T21:55:48.416Z,7.68
2022-07-29T22:00:51.249Z,7.18
2022-07-29T22:05:56.136Z,7.63
2022-07-29T22:10:59.012Z,9.60
2022-07-29T22:16:01.800Z,9.55
2022-07-29T22:21:06.221Z,8.30
2022-07-29T22:26:09.187Z,10.53
2022-07-29T22:31:12.272Z,8.13
2022-07-29T22:36:16.556Z,7.15
2022-07-29T22:41:19.402Z,6.53
2022-07-29T22:46:22.293Z,7.07
2022-07-29T22:51:26.913Z,5.97
2022-07-29T22:56:29.827Z,8.67
2022-07-29T23:01:37.258Z,11.85
2022-07-29T23:06:42.299Z,6.93
2022-07-29T23:11:45.129Z,7.73
2022-07-29T23:16:48.132Z,8.27
2022-07-29T23:21:52.381Z,6.97
2022-07-29T23:26:55.239Z,7.05
2022-07-29T23:31:58.033Z,7.53
2022-07-29T23:37:02.601Z,7.55
2022-07-29T23:42:05.808Z,7.20
2022-07-29T23:47:08.644Z,7.23
2022-07-29T23:52:12.876Z,6.70
2022-07-29T23:57:15.773Z,6.40
